createdAt,value
2022-12-04T00:00:27.463Z,99109.44
2022-12-04T00:02:54.530Z,99104.00
2022-12-04T00:05:21.261Z,99104.72
2022-12-04T00:07:48.251Z,99102.78
2022-12-04T00:10:15.092Z,99101.09
2022-12-04T00:12:41.828Z,99086.19
2022-12-04T00:15:25.322Z,99081.16
2022-12-04T00:17:52.672Z,99086.41
2022-12-04T00:20:20.171Z,99077.38
2022-12-04T00:22:47.145Z,99077.81
2022-12-04T00:25:13.870Z,99073.38
2022-12-04T00:27:40.630Z,99071.47
2022-12-04T00:30:08.264Z,99081.00
2022-12-04T00:32:35.178Z,99073.59
2022-12-04T00:35:02.013Z,99078.22
2022-12-04T00:37:28.901Z,99081.88
2022-12-04T00:39:56.005Z,99064.03
2022-12-04T00:42:22.847Z,99067.97
2022-12-04T00:44:49.716Z,99060.53
2022-12-04T00:47:16.618Z,99058.97
2022-12-04T00:49:43.417Z,99056.38
2022-12-04T00:52:10.217Z,99049.53
2022-12-04T00:54:37.199Z,99065.72
2022-12-04T00:57:04.057Z,99070.66
2022-12-04T00:59:30.982Z,99066.03
2022-12-04T01:01:57.802Z,99054.91
2022-12-04T01:04:24.602Z,99061.88
2022-12-04T01:06:51.358Z,99055.31
2022-12-04T01:09:18.950Z,99057.41
2022-12-04T01:11:45.713Z,99049.41
2022-12-04T01:14:12.610Z,99052.41
2022-12-04T01:16:40.158Z,99056.41
2022-12-04T01:19:09.077Z,99052.44
2022-12-04T01:21:36.866Z,99047.59
2022-12-04T01:24:04.176Z,99045.22
2022-12-04T01:26:31.153Z,99043.31
2022-12-04T01:28:58.123Z,99052.06
2022-12-04T01:31:25.510Z,99063.19
2022-12-04T01:33:52.405Z,99050.25
2022-12-04T01:36:21.939Z,99057.09
2022-12-04T01:38:49.073Z,99055.25
2022-12-04T01:41:17.973Z,99054.09
2022-12-04T01:43:44.799Z,99052.59
2022-12-04T01:46:12.022Z,99053.59
2022-12-04T01:48:49.356Z,99054.91
2022-12-04T01:51:19.985Z,99051.44
2022-12-04T01:53:56.665Z,99050.94
2022-12-04T01:56:27.219Z,99045.69
2022-12-04T01:58:55.119Z,99041.56
2022-12-04T02:01:22.253Z,99020.88
2022-12-04T02:03:51.112Z,99025.63
2022-12-04T02:06:18.154Z,99035.50
2022-12-04T02:08:44.996Z,99030.13
2022-12-04T02:11:38.060Z,99024.38
2022-12-04T02:14:43.685Z,99021.72
2022-12-04T02:17:29.241Z,99017.00
2022-12-04T02:20:30.241Z,99022.88
2022-12-04T02:23:38.996Z,99022.22
2022-12-04T02:26:43.543Z,99018.47
2022-12-04T02:29:37.433Z,99020.06
2022-12-04T02:32:16.782Z,99024.81
2022-12-04T02:35:22.641Z,99033.81
2022-12-04T02:38:12.550Z,99028.06
2022-12-04T02:41:13.422Z,99016.88
2022-12-04T02:43:47.124Z,99012.22
2022-12-04T02:46:34.941Z,99012.41
2022-12-04T02:49:03.925Z,99008.06
2022-12-04T02:51:34.010Z,99020.19
2022-12-04T02:54:15.752Z,99017.72
2022-12-04T02:56:44.491Z,99017.31
2022-12-04T02:59:17.641Z,99024.75
2022-12-04T03:01:48.786Z,99012.66
2022-12-04T03:04:19.138Z,99017.97
2022-12-04T03:06:57.259Z,99017.41
2022-12-04T03:09:26.481Z,99021.00
2022-12-04T03:11:57.787Z,99013.88
2022-12-04T03:14:30.348Z,99011.88
2022-12-04T03:17:03.348Z,99018.56
2022-12-04T03:19:37.337Z,99015.72
2022-12-04T03:22:09.046Z,99001.22
2022-12-04T03:24:45.155Z,98988.47
2022-12-04T03:27:47.169Z,99004.22
2022-12-04T03:30:19.990Z,99000.63
2022-12-04T03:32:55.000Z,99000.03
2022-12-04T03:35:24.361Z,99007.66
2022-12-04T03:38:18.687Z,99015.97
2022-12-04T03:41:11.246Z,99006.22
2022-12-04T03:44:27.406Z,99027.72
2022-12-04T03:47:11.482Z,99017.41
2022-12-04T03:53:21.353Z,99011.91
2022-12-04T03:56:25.770Z,99007.72
2022-12-04T03:58:57.835Z,99005.22
2022-12-04T04:01:29.419Z,99008.66
2022-12-04T04:03:58.330Z,99003.88
2022-12-04T04:06:40.237Z,99010.38
2022-12-04T04:09:12.091Z,99019.06
2022-12-04T04:11:45.276Z,99017.13
2022-12-04T04:14:34.561Z,99016.72
2022-12-04T04:17:23.871Z,99023.88
2022-12-04T04:20:15.730Z,99030.31
2022-12-04T04:23:02.459Z,99021.38
2022-12-04T04:25:29.605Z,99016.72
2022-12-04T04:27:58.384Z,99019.31
2022-12-04T04:30:26.201Z,99016.06
2022-12-04T04:33:13.849Z,99007.06
2022-12-04T04:35:58.773Z,99002.91
2022-12-04T04:38:40.116Z,99007.63
2022-12-04T04:41:13.710Z,98999.88
2022-12-04T04:43:42.921Z,99008.88
2022-12-04T04:46:27.543Z,99005.22
2022-12-04T04:48:57.269Z,99006.63
2022-12-04T04:51:24.588Z,98998.88
2022-12-04T04:53:54.181Z,99000.97
2022-12-04T04:56:21.694Z,98991.56
2022-12-04T04:58:48.819Z,98976.47
2022-12-04T05:01:18.956Z,98967.34
2022-12-04T05:03:46.828Z,98985.69
2022-12-04T05:06:13.731Z,98988.72
2022-12-04T05:08:40.530Z,98984.63
2022-12-04T05:11:12.199Z,98991.97
2022-12-04T05:13:39.458Z,99015.25
2022-12-04T05:16:09.098Z,99016.72
2022-12-04T05:18:36.440Z,99009.38
2022-12-04T05:21:18.866Z,99013.56
2022-12-04T05:23:45.803Z,99026.19
2022-12-04T05:26:12.637Z,99031.06
2022-12-04T05:28:41.456Z,99032.06
2022-12-04T05:31:08.435Z,99039.75
2022-12-04T05:33:35.422Z,99037.16
2022-12-04T05:36:07.815Z,99027.84
2022-12-04T05:38:34.770Z,99028.97
2022-12-04T05:41:02.812Z,99018.47
2022-12-04T05:43:30.118Z,99017.91
2022-12-04T05:46:02.482Z,99008.56
2022-12-04T05:48:29.335Z,99011.06
2022-12-04T05:50:56.159Z,99006.53
2022-12-04T05:53:23.473Z,99009.56
2022-12-04T05:55:57.796Z,99006.31
2022-12-04T05:58:25.209Z,99002.72
2022-12-04T06:00:52.687Z,98998.22
2022-12-04T06:03:20.245Z,98997.56
2022-12-04T06:05:47.213Z,98993.78
2022-12-04T06:08:14.609Z,98998.31
2022-12-04T06:10:41.442Z,98994.38
2022-12-04T06:13:10.084Z,98995.84
2022-12-04T06:15:40.200Z,99001.72
2022-12-04T06:18:07.643Z,98991.44
2022-12-04T06:20:35.235Z,98994.22
2022-12-04T06:23:02.254Z,98997.88
2022-12-04T06:25:29.269Z,98996.41
2022-12-04T06:27:56.851Z,99003.50
2022-12-04T06:30:23.908Z,99009.97
2022-12-04T06:32:50.684Z,99010.63
2022-12-04T06:35:17.619Z,99010.72
2022-12-04T06:37:44.843Z,99015.31
2022-12-04T06:40:12.582Z,99008.22
2022-12-04T06:42:39.690Z,98999.88
2022-12-04T06:45:07.605Z,99013.22
2022-12-04T06:47:36.096Z,99015.88
2022-12-04T06:50:04.505Z,99019.97
2022-12-04T06:52:34.143Z,99017.97
2022-12-04T06:55:01.116Z,99029.16
2022-12-04T06:57:27.928Z,99027.13
2022-12-04T06:59:55.551Z,99018.56
2022-12-04T07:02:23.417Z,99037.59
2022-12-04T07:04:55.442Z,99035.16
2022-12-04T07:07:22.109Z,99027.81
2022-12-04T07:09:49.330Z,99024.66
2022-12-04T07:12:16.691Z,99021.81
2022-12-04T07:14:43.483Z,99026.91
2022-12-04T07:17:10.592Z,99012.22
2022-12-04T07:19:38.782Z,99019.88
2022-12-04T07:22:06.550Z,99020.56
2022-12-04T07:24:33.383Z,99024.41
2022-12-04T07:27:01.361Z,99030.16
2022-12-04T07:29:28.154Z,99026.31
2022-12-04T07:31:55.012Z,99030.47
2022-12-04T07:34:21.780Z,99017.06
2022-12-04T07:36:49.773Z,99021.72
2022-12-04T07:39:16.682Z,99022.97
2022-12-04T07:41:43.387Z,99013.19
2022-12-04T07:44:10.182Z,99015.88
2022-12-04T07:46:38.147Z,99019.41
2022-12-04T07:49:04.947Z,99022.22
2022-12-04T07:51:31.902Z,99014.16
2022-12-04T07:54:02.724Z,99017.78
2022-12-04T07:56:30.980Z,99018.41
2022-12-04T07:58:57.911Z,99016.72
2022-12-04T08:01:25.518Z,99025.25
2022-12-04T08:03:56.287Z,99028.72
2022-12-04T08:06:24.575Z,99026.56
2022-12-04T08:08:52.477Z,99027.28
2022-12-04T08:11:22.469Z,99026.59
2022-12-04T08:13:49.672Z,99018.91
2022-12-04T08:16:17.275Z,99016.56
2022-12-04T08:18:47.296Z,99015.53
2022-12-04T08:21:16.608Z,99019.06
2022-12-04T08:23:44.673Z,99023.53
2022-12-04T08:26:12.277Z,99019.06
2022-12-04T08:28:40.333Z,99008.22
2022-12-04T08:31:20.155Z,99015.72
2022-12-04T08:33:48.730Z,99015.22
2022-12-04T08:36:19.554Z,99014.19
2022-12-04T08:38:47.358Z,99016.06
2022-12-04T08:41:17.171Z,99010.03
2022-12-04T08:43:44.061Z,98996.72
2022-12-04T08:46:14.002Z,99000.03
2022-12-04T08:48:41.688Z,98996.22
2022-12-04T08:51:13.672Z,98997.69
2022-12-04T08:53:41.046Z,98999.19
2022-12-04T08:56:08.716Z,98994.50
2022-12-04T08:58:35.794Z,98986.50
2022-12-04T09:01:07.976Z,99001.59
2022-12-04T09:03:35.762Z,99002.00
2022-12-04T09:06:04.823Z,99005.34
2022-12-04T09:08:32.962Z,99002.19
2022-12-04T09:11:07.929Z,99010.19
2022-12-04T09:13:35.233Z,99014.13
2022-12-04T09:16:07.631Z,99012.53
2022-12-04T09:18:36.274Z,99008.97
2022-12-04T09:21:06.268Z,99014.50
2022-12-04T09:23:35.452Z,99014.06
2022-12-04T09:26:03.284Z,99014.28
2022-12-04T09:28:30.408Z,99009.75
2022-12-04T09:31:02.313Z,98992.19
2022-12-04T09:33:30.903Z,98997.19
2022-12-04T09:36:05.051Z,98990.63
2022-12-04T09:38:31.945Z,98993.41
2022-12-04T09:41:50.030Z,98992.78
2022-12-04T09:44:37.394Z,98990.97
2022-12-04T09:47:10.190Z,98984.06
2022-12-04T09:49:46.027Z,98991.19
2022-12-04T09:52:53.589Z,98984.88
2022-12-04T09:55:30.121Z,98982.34
2022-12-04T09:58:02.148Z,98994.59
2022-12-04T10:00:30.742Z,98987.53
2022-12-04T10:03:12.129Z,98991.03
2022-12-04T10:06:03.388Z,98989.75
2022-12-04T10:08:35.493Z,98991.31
2022-12-04T10:11:30.733Z,98997.00
2022-12-04T10:14:22.114Z,98988.53
2022-12-04T10:17:20.161Z,98985.13
2022-12-04T10:20:11.916Z,98994.47
2022-12-04T10:22:56.692Z,98993.34
2022-12-04T10:25:25.131Z,98991.81
2022-12-04T10:28:11.963Z,98987.19
2022-12-04T10:30:41.831Z,98987.66
2022-12-04T10:33:17.612Z,98987.97
2022-12-04T10:35:45.281Z,98995.22
2022-12-04T10:38:40.157Z,98987.97
2022-12-04T10:41:15.099Z,98986.97
2022-12-04T10:43:47.083Z,98979.28
2022-12-04T10:46:24.711Z,98983.56
2022-12-04T10:48:56.067Z,98983.22
2022-12-04T10:51:24.112Z,98978.47
2022-12-04T10:53:51.649Z,98982.19
2022-12-04T10:56:21.769Z,98987.53
2022-12-04T10:59:14.952Z,98980.84
2022-12-04T11:01:41.763Z,98972.53
2022-12-04T11:04:19.287Z,98989.38
2022-12-04T11:06:46.727Z,98983.56
2022-12-04T11:09:25.635Z,98979.91
2022-12-04T11:11:52.826Z,98991.03
2022-12-04T11:14:23.492Z,98982.97
2022-12-04T11:17:01.652Z,98974.50
2022-12-04T11:19:30.971Z,98980.28
2022-12-04T11:22:05.582Z,98974.09
2022-12-04T11:24:35.585Z,98968.56
2022-12-04T11:27:06.586Z,98967.34
2022-12-04T11:29:41.326Z,98958.78
2022-12-04T11:32:24.723Z,98960.69
2022-12-04T11:34:53.945Z,98966.53
2022-12-04T11:37:30.805Z,98961.44
2022-12-04T11:39:58.089Z,98961.72
2022-12-04T11:42:30.466Z,98961.47
2022-12-04T11:45:01.452Z,98959.41
2022-12-04T11:47:30.805Z,98956.47
2022-12-04T11:50:19.431Z,98945.16
2022-12-04T11:53:10.299Z,98936.09
2022-12-04T11:56:24.995Z,98937.00
2022-12-04T11:59:28.376Z,98929.63
2022-12-04T12:02:14.482Z,98918.44
2022-12-04T12:05:39.554Z,98924.69
2022-12-04T12:08:33.320Z,98915.16
2022-12-04T12:11:26.373Z,98908.16
2022-12-04T12:14:14.681Z,98912.88
2022-12-04T12:17:01.117Z,98903.19
2022-12-04T12:20:22.009Z,98905.03
2022-12-04T12:23:24.191Z,98898.00
2022-12-04T12:26:11.608Z,98903.00
2022-12-04T12:29:23.829Z,98893.19
2022-12-04T12:32:22.182Z,98883.50
2022-12-04T12:34:49.639Z,98887.53
2022-12-04T12:37:26.556Z,98882.03
2022-12-04T12:40:06.502Z,98883.03
2022-12-04T12:42:53.640Z,98882.78
2022-12-04T12:45:37.320Z,98886.47
2022-12-04T12:48:16.262Z,98878.06
2022-12-04T12:51:08.850Z,98879.72
2022-12-04T12:53:43.615Z,98888.03
2022-12-04T12:56:13.337Z,98876.19
2022-12-04T12:58:52.742Z,98877.28
2022-12-04T13:01:44.021Z,98871.38
2022-12-04T13:04:29.714Z,98861.31
2022-12-04T13:07:14.342Z,98859.81
2022-12-04T13:09:45.662Z,98860.00
2022-12-04T13:12:16.174Z,98854.56
2022-12-04T13:14:48.667Z,98853.06
2022-12-04T13:17:21.052Z,98845.50
2022-12-04T13:19:53.937Z,98853.81
2022-12-04T13:23:12.996Z,98853.63
2022-12-04T13:25:57.522Z,98849.19
2022-12-04T13:28:58.737Z,98848.25
2022-12-04T13:32:15.309Z,98847.16
2022-12-04T13:35:04.790Z,98844.00
2022-12-04T13:37:49.909Z,98853.44
2022-12-04T13:41:04.888Z,98844.66
2022-12-04T13:43:38.048Z,98836.88
2022-12-04T13:46:23.777Z,98833.19
2022-12-04T13:48:50.703Z,98830.69
2022-12-04T13:51:41.238Z,98827.09
2022-12-04T13:54:35.391Z,98834.56
2022-12-04T13:57:22.478Z,98844.66
2022-12-04T13:59:49.834Z,98847.88
2022-12-04T14:02:44.747Z,98843.34
2022-12-04T14:05:12.658Z,98848.72
2022-12-04T14:07:42.855Z,98864.34
2022-12-04T14:10:37.309Z,98876.19
2022-12-04T14:13:22.145Z,98874.34
2022-12-04T14:15:49.298Z,98871.66
2022-12-04T14:18:29.517Z,98862.66
2022-12-04T14:21:04.227Z,98864.63
2022-12-04T14:23:50.137Z,98859.81
2022-12-04T14:27:10.728Z,98869.53
2022-12-04T14:29:57.381Z,98872.97
2022-12-04T14:32:27.440Z,98853.16
2022-12-04T14:34:55.219Z,98862.88
2022-12-04T14:37:28.128Z,98871.66
2022-12-04T14:39:56.010Z,98875.28
2022-12-04T14:42:26.775Z,98870.09
2022-12-04T14:44:56.416Z,98866.41
2022-12-04T14:47:34.181Z,98851.25
2022-12-04T14:50:39.858Z,98857.44
2022-12-04T14:53:17.354Z,98848.00
2022-12-04T14:56:13.097Z,98854.75
2022-12-04T14:58:40.311Z,98860.31
2022-12-04T15:01:28.329Z,98865.09
2022-12-04T15:03:59.288Z,98862.50
2022-12-04T15:06:30.971Z,98873.59
2022-12-04T15:09:22.845Z,98864.91
2022-12-04T15:12:10.191Z,98884.34
2022-12-04T15:14:47.767Z,98873.78
2022-12-04T15:17:16.460Z,98878.03
2022-12-04T15:19:43.440Z,98879.31
2022-12-04T15:22:36.153Z,98872.00
2022-12-04T15:25:03.494Z,98876.84
2022-12-04T15:27:32.973Z,98880.44
2022-12-04T15:30:00.741Z,98883.78
2022-12-04T15:32:29.011Z,98890.41
2022-12-04T15:35:00.565Z,98868.59
2022-12-04T15:37:29.421Z,98870.91
2022-12-04T15:51:22.645Z,98892.81
2022-12-04T15:53:50.283Z,98881.75
2022-12-04T15:56:19.558Z,98887.78
2022-12-04T15:58:59.569Z,98888.28
2022-12-04T16:01:26.957Z,98874.78
2022-12-04T16:03:56.237Z,98878.75
2022-12-04T16:06:29.606Z,98879.88
2022-12-04T16:09:27.004Z,98879.53
2022-12-04T16:12:03.673Z,98883.03
2022-12-04T16:14:30.674Z,98877.50
2022-12-04T16:17:05.826Z,98870.09
2022-12-04T16:19:37.638Z,98877.50
2022-12-04T16:22:12.316Z,98872.13
2022-12-04T16:24:39.920Z,98871.38
2022-12-04T16:27:12.768Z,98872.31
2022-12-04T16:29:39.706Z,98868.31
2022-12-04T16:32:06.654Z,98879.16
2022-12-04T16:34:34.353Z,98882.03
2022-12-04T16:37:01.816Z,98874.34
2022-12-04T16:39:29.382Z,98882.84
2022-12-04T16:41:56.197Z,98887.84
2022-12-04T16:44:23.032Z,98884.34
2022-12-04T16:46:52.201Z,98876.56
2022-12-04T16:49:19.333Z,98872.88
2022-12-04T16:51:50.699Z,98881.00
2022-12-04T16:54:17.991Z,98877.00
2022-12-04T16:56:44.679Z,98881.94
2022-12-04T16:59:12.524Z,98886.00
2022-12-04T17:01:43.408Z,98886.63
2022-12-04T17:04:11.714Z,98883.03
2022-12-04T17:06:40.707Z,98886.72
2022-12-04T17:09:07.776Z,98886.19
2022-12-04T17:11:34.763Z,98879.63
2022-12-04T17:14:07.028Z,98872.69
2022-12-04T17:16:39.225Z,98875.81
2022-12-04T17:19:06.152Z,98885.38
2022-12-04T17:21:33.139Z,98880.63
2022-12-04T17:24:00.200Z,98891.69
2022-12-04T17:26:27.848Z,98884.69
2022-12-04T17:28:55.197Z,98877.13
2022-12-04T17:31:24.779Z,98886.63
2022-12-04T17:33:52.101Z,98887.19
2022-12-04T17:36:22.749Z,98881.94
2022-12-04T17:38:57.185Z,98884.69
2022-12-04T17:41:24.749Z,98884.22
2022-12-04T17:43:52.005Z,98877.22
2022-12-04T17:46:22.151Z,98876.38
2022-12-04T17:48:50.934Z,98872.31
2022-12-04T17:51:22.555Z,98874.34
2022-12-04T17:53:51.119Z,98879.31
2022-12-04T17:56:23.267Z,98880.06
2022-12-04T17:58:51.861Z,98874.81
2022-12-04T18:01:24.534Z,98883.47
2022-12-04T18:03:53.309Z,98879.88
2022-12-04T18:06:23.517Z,98886.19
2022-12-04T18:08:51.091Z,98891.16
2022-12-04T18:11:21.097Z,98893.03
2022-12-04T18:14:03.920Z,98887.00
2022-12-04T18:16:35.737Z,98888.56
2022-12-04T18:19:03.657Z,98888.22
2022-12-04T18:21:30.934Z,98878.06
2022-12-04T18:24:00.438Z,98885.81
2022-12-04T18:26:28.644Z,98895.88
2022-12-04T18:28:56.907Z,98879.78
2022-12-04T18:31:23.841Z,98885.69
2022-12-04T18:33:50.676Z,98897.28
2022-12-04T18:36:25.761Z,98893.56
2022-12-04T18:39:01.074Z,98885.69
2022-12-04T18:41:29.807Z,98887.47
2022-12-04T18:43:59.936Z,98885.63
2022-12-04T18:46:27.103Z,98884.63
2022-12-04T18:48:56.624Z,98881.00
2022-12-04T18:51:30.593Z,98881.19
2022-12-04T18:54:04.282Z,98879.88
2022-12-04T18:56:35.197Z,98885.81
2022-12-04T18:59:06.140Z,98882.66
2022-12-04T19:01:33.572Z,98886.47
2022-12-04T19:04:03.831Z,98885.91
2022-12-04T19:06:33.616Z,98878.50
2022-12-04T19:09:02.966Z,98880.16
2022-12-04T19:11:29.998Z,98883.66
2022-12-04T19:13:58.544Z,98885.53
2022-12-04T19:16:25.928Z,98891.38
2022-12-04T19:18:53.858Z,98892.81
2022-12-04T19:21:21.241Z,98890.88
2022-12-04T19:23:52.673Z,98897.81
2022-12-04T19:26:20.143Z,98895.97
2022-12-04T19:28:47.029Z,98880.53
2022-12-04T19:31:19.512Z,98885.34
2022-12-04T19:33:46.846Z,98887.84
2022-12-04T19:36:14.688Z,98889.78
2022-12-04T19:38:43.222Z,98886.47
2022-12-04T19:41:13.039Z,98891.91
2022-12-04T19:43:43.315Z,98892.13
2022-12-04T19:46:13.489Z,98887.28
2022-12-04T19:48:42.131Z,98894.59
2022-12-04T19:51:13.329Z,98887.84
2022-12-04T19:53:41.891Z,98885.63
2022-12-04T19:56:11.314Z,98891.66
2022-12-04T19:58:38.583Z,98888.28
2022-12-04T20:01:07.669Z,98895.25
2022-12-04T20:03:35.025Z,98895.44
2022-12-04T20:06:07.264Z,98881.56
2022-12-04T20:08:34.730Z,98882.09
2022-12-04T20:11:05.929Z,98869.53
2022-12-04T20:13:36.325Z,98870.00
2022-12-04T20:16:05.807Z,98871.84
2022-12-04T20:18:33.305Z,98874.72
2022-12-04T20:21:01.713Z,98876.91
2022-12-04T20:23:29.909Z,98879.34
2022-12-04T20:25:57.005Z,98873.06
2022-12-04T20:28:25.381Z,98880.38
2022-12-04T20:30:54.005Z,98876.19
2022-12-04T20:33:20.994Z,98880.44
2022-12-04T20:35:48.024Z,98887.66
2022-12-04T20:40:47.305Z,98895.81
2022-12-04T20:43:14.513Z,98893.56
2022-12-04T20:45:42.952Z,98890.09
2022-12-04T20:48:09.737Z,98890.25
2022-12-04T20:50:36.471Z,98882.94
2022-12-04T20:53:03.437Z,98889.63
2022-12-04T20:55:30.825Z,98888.59
2022-12-04T20:57:59.041Z,98886.34
2022-12-04T21:00:26.140Z,98891.84
2022-12-04T21:02:53.521Z,98873.06
2022-12-04T21:05:20.244Z,98887.59
2022-12-04T21:07:48.095Z,98890.53
2022-12-04T21:10:15.386Z,98891.75
2022-12-04T21:13:02.000Z,98892.66
2022-12-04T21:15:47.893Z,98896.53
2022-12-04T21:18:15.058Z,98895.25
2022-12-04T21:20:41.930Z,98889.53
2022-12-04T21:23:08.738Z,98891.38
2022-12-04T21:25:37.930Z,98897.66
2022-12-04T21:28:08.283Z,98892.56
2022-12-04T21:30:37.324Z,98889.72
2022-12-04T21:33:04.236Z,98893.41
2022-12-04T21:35:31.537Z,98877.19
2022-12-04T21:37:58.506Z,98882.13
2022-12-04T21:40:26.340Z,98881.34
2022-12-04T21:42:54.264Z,98884.97
2022-12-04T21:45:20.979Z,98873.97
2022-12-04T21:47:48.334Z,98877.94
2022-12-04T21:50:15.057Z,98878.31
2022-12-04T21:52:42.567Z,98882.84
2022-12-04T21:55:10.134Z,98875.09
2022-12-04T21:57:37.544Z,98869.72
2022-12-04T22:00:05.981Z,98877.00
2022-12-04T22:02:32.800Z,98870.63
2022-12-04T22:04:59.977Z,98877.88
2022-12-04T22:07:27.460Z,98881.09
2022-12-04T22:09:55.066Z,98875.25
2022-12-04T22:15:09.573Z,98878.25
2022-12-04T22:17:36.297Z,98876.38
2022-12-04T22:20:03.610Z,98874.88
2022-12-04T22:22:31.709Z,98876.75
2022-12-04T22:25:01.460Z,98870.00
2022-12-04T22:27:29.546Z,98871.00
2022-12-04T22:29:56.855Z,98873.44
2022-12-04T22:32:23.556Z,98869.16
2022-12-04T22:34:51.706Z,98878.97
2022-12-04T22:37:18.682Z,98878.03
2022-12-04T22:39:46.661Z,98874.72
2022-12-04T22:42:13.428Z,98884.69
2022-12-04T22:44:40.161Z,98887.66
2022-12-04T22:47:09.193Z,98893.13
2022-12-04T22:49:36.341Z,98886.44
2022-12-04T22:52:03.689Z,98884.06
2022-12-04T22:54:31.178Z,98891.38
2022-12-04T22:56:57.985Z,98895.06
2022-12-04T22:59:25.295Z,98884.31
2022-12-04T23:01:52.201Z,98891.75
2022-12-04T23:04:19.177Z,98886.19
2022-12-04T23:06:46.061Z,98891.38
2022-12-04T23:09:15.444Z,98887.84
2022-12-04T23:11:42.842Z,98885.63
2022-12-04T23:14:13.862Z,98886.00
2022-12-04T23:16:41.368Z,98893.13
2022-12-04T23:19:10.725Z,98884.63
2022-12-04T23:21:38.016Z,98884.97
2022-12-04T23:24:05.868Z,98893.50
2022-12-04T23:26:36.230Z,98887.50
2022-12-04T23:29:05.345Z,98885.53
2022-12-04T23:31:41.148Z,98892.44
2022-12-04T23:34:08.105Z,98883.03
2022-12-04T23:36:35.070Z,98890.63
2022-12-04T23:39:03.758Z,98889.88
2022-12-04T23:41:33.422Z,98898.31
2022-12-04T23:44:01.019Z,98884.13
2022-12-04T23:46:33.156Z,98893.94
2022-12-04T23:49:00.989Z,98888.69
2022-12-04T23:51:28.402Z,98892.75
2022-12-04T23:53:55.538Z,98888.59
2022-12-04T23:56:25.049Z,98888.69
2022-12-04T23:58:54.694Z,98884.16
